createdAt,value
2023-02-04T00:00:02.198Z,11.83
2023-02-04T00:02:28.947Z,18.57
2023-02-04T00:04:55.618Z,16.23
2023-02-04T00:07:22.518Z,17.60
2023-02-04T00:09:50.046Z,15.27
2023-02-04T00:12:17.194Z,14.20
2023-02-04T00:14:43.839Z,18.50
2023-02-04T00:17:12.922Z,21.20
2023-02-04T00:19:41.123Z,23.57
2023-02-04T00:22:08.634Z,18.93
2023-02-04T00:24:36.396Z,23.20
2023-02-04T00:27:03.601Z,18.30
2023-02-04T00:29:30.460Z,20.50
2023-02-04T00:31:57.927Z,24.37
2023-02-04T00:34:24.774Z,21.67
2023-02-04T00:36:51.633Z,26.17
2023-02-04T00:39:18.381Z,16.40
2023-02-04T00:41:45.115Z,12.53
2023-02-04T00:44:13.933Z,26.33
2023-02-04T00:46:42.466Z,30.07
2023-02-04T00:49:10.796Z,13.33
2023-02-04T00:51:41.305Z,26.90
2023-02-04T00:54:07.961Z,16.97
2023-02-04T00:56:35.035Z,11.97
2023-02-04T00:59:02.007Z,18.27
2023-02-04T01:01:28.862Z,12.93
2023-02-04T01:03:55.594Z,14.97
2023-02-04T01:06:22.331Z,19.50
2023-02-04T01:08:49.115Z,21.57
2023-02-04T01:11:16.200Z,16.97
2023-02-04T01:13:43.234Z,17.00
2023-02-04T01:16:10.126Z,11.83
2023-02-04T01:18:36.965Z,18.83
2023-02-04T01:21:03.672Z,12.93
2023-02-04T01:23:30.550Z,11.70
2023-02-04T01:25:57.428Z,16.50
2023-02-04T01:28:24.282Z,13.43
2023-02-04T01:30:51.082Z,19.07
2023-02-04T01:33:17.822Z,11.30
2023-02-04T01:35:44.545Z,18.40
2023-02-04T01:38:11.306Z,9.40
2023-02-04T01:40:38.366Z,16.43
2023-02-04T01:43:05.954Z,18.00
2023-02-04T01:45:35.540Z,20.30
2023-02-04T01:48:04.232Z,21.67
2023-02-04T01:50:31.929Z,15.10
2023-02-04T01:52:59.426Z,14.07
2023-02-04T01:55:29.153Z,14.57
2023-02-04T01:57:58.813Z,14.67
2023-02-04T02:00:32.293Z,17.30
2023-02-04T02:03:00.012Z,14.03
2023-02-04T02:05:38.779Z,23.60
2023-02-04T02:08:07.264Z,11.57
2023-02-04T02:10:36.388Z,12.70
2023-02-04T02:13:04.279Z,16.27
2023-02-04T02:15:31.142Z,14.93
2023-02-04T02:17:57.862Z,14.40
2023-02-04T02:20:26.609Z,15.60
2023-02-04T02:23:19.291Z,22.70
2023-02-04T02:25:46.636Z,18.17
2023-02-04T02:28:17.347Z,8.43
2023-02-04T02:30:49.118Z,20.47
2023-02-04T02:33:19.279Z,26.20
2023-02-04T02:35:48.351Z,11.10
2023-02-04T02:38:16.671Z,11.70
2023-02-04T02:40:43.897Z,22.90
2023-02-04T02:43:23.185Z,20.20
2023-02-04T02:45:50.616Z,14.03
2023-02-04T02:48:17.720Z,13.40
2023-02-04T02:50:45.175Z,12.63
2023-02-04T02:53:17.556Z,14.80
2023-02-04T02:55:44.859Z,14.97
2023-02-04T02:58:32.740Z,14.97
2023-02-04T03:01:06.065Z,15.63
2023-02-04T03:03:38.869Z,25.67
2023-02-04T03:06:11.769Z,11.97
2023-02-04T03:08:39.052Z,12.23
2023-02-04T03:11:06.062Z,14.67
2023-02-04T03:13:34.116Z,22.87
2023-02-04T03:16:01.300Z,21.43
2023-02-04T03:18:28.028Z,14.90
2023-02-04T03:20:55.311Z,12.93
2023-02-04T03:23:22.006Z,21.93
2023-02-04T03:25:48.801Z,17.43
2023-02-04T03:28:16.732Z,17.70
2023-02-04T03:30:43.620Z,17.87
2023-02-04T03:33:10.326Z,9.87
2023-02-04T03:35:36.976Z,11.67
2023-02-04T03:38:03.656Z,21.10
2023-02-04T03:40:30.657Z,12.13
2023-02-04T03:42:57.446Z,11.97
2023-02-04T03:45:24.934Z,23.83
2023-02-04T03:47:51.771Z,16.63
2023-02-04T03:50:18.644Z,19.97
2023-02-04T03:52:45.623Z,21.40
2023-02-04T03:55:12.274Z,19.53
2023-02-04T03:57:38.924Z,13.40
2023-02-04T04:00:06.066Z,9.30
2023-02-04T04:02:32.910Z,17.07
2023-02-04T04:04:59.592Z,14.53
2023-02-04T04:07:26.367Z,17.87
2023-02-04T04:09:53.078Z,14.10
2023-02-04T04:12:19.759Z,11.20
2023-02-04T04:14:46.556Z,19.80
2023-02-04T04:17:13.214Z,20.20
2023-02-04T04:19:39.853Z,26.97
2023-02-04T04:22:06.518Z,9.90
2023-02-04T04:24:33.689Z,16.10
2023-02-04T04:27:00.616Z,13.50
2023-02-04T04:29:27.363Z,27.17
2023-02-04T04:31:54.140Z,24.13
2023-02-04T04:34:20.995Z,18.00
2023-02-04T04:36:47.662Z,17.13
2023-02-04T04:39:14.386Z,12.20
2023-02-04T04:41:41.038Z,12.83
2023-02-04T04:44:07.797Z,19.17
2023-02-04T04:46:34.609Z,20.17
2023-02-04T04:49:01.301Z,19.37
2023-02-04T04:51:32.017Z,14.50
2023-02-04T04:53:59.923Z,10.87
2023-02-04T04:56:26.639Z,19.87
2023-02-04T04:58:53.352Z,18.00
2023-02-04T05:01:21.558Z,17.00
2023-02-04T05:03:48.766Z,17.50
2023-02-04T05:06:15.929Z,18.17
2023-02-04T05:08:42.900Z,16.33
2023-02-04T05:11:09.611Z,15.33
2023-02-04T05:13:36.260Z,14.90
2023-02-04T05:16:03.103Z,13.70
2023-02-04T05:18:29.788Z,20.53
2023-02-04T05:20:56.486Z,14.67
2023-02-04T05:23:23.112Z,14.20
2023-02-04T05:25:49.929Z,21.83
2023-02-04T05:28:16.733Z,18.37
2023-02-04T05:30:43.546Z,20.60
2023-02-04T05:33:10.184Z,26.37
2023-02-04T05:35:36.829Z,15.70
2023-02-04T05:38:03.445Z,16.20
2023-02-04T05:40:30.538Z,24.97
2023-02-04T05:42:57.610Z,25.40
2023-02-04T05:45:24.360Z,24.77
2023-02-04T05:47:51.056Z,41.27
2023-02-04T05:50:17.818Z,17.43
2023-02-04T05:52:44.652Z,22.10
2023-02-04T05:55:12.768Z,20.33
2023-02-04T05:57:39.597Z,29.40
2023-02-04T06:00:07.874Z,27.10
2023-02-04T06:02:34.505Z,19.00
2023-02-04T06:05:01.149Z,36.70
2023-02-04T06:07:27.874Z,22.73
2023-02-04T06:09:54.554Z,16.30
2023-02-04T06:12:21.215Z,17.90
2023-02-04T06:14:47.896Z,15.33
2023-02-04T06:17:14.544Z,16.77
2023-02-04T06:19:41.305Z,18.03
2023-02-04T06:22:07.960Z,20.03
2023-02-04T06:24:34.652Z,27.13
2023-02-04T06:27:01.301Z,22.23
2023-02-04T06:29:27.940Z,12.30
2023-02-04T06:31:54.689Z,17.63
2023-02-04T06:34:21.426Z,21.43
2023-02-04T06:36:48.123Z,19.53
2023-02-04T06:39:14.787Z,22.70
2023-02-04T06:41:41.467Z,13.83
2023-02-04T06:44:08.097Z,19.40
2023-02-04T06:46:34.789Z,16.47
2023-02-04T06:49:01.434Z,7.93
2023-02-04T06:51:28.187Z,23.13
2023-02-04T06:53:54.939Z,19.30
2023-02-04T06:56:21.715Z,19.03
2023-02-04T06:58:48.440Z,14.63
2023-02-04T07:01:15.171Z,22.20
2023-02-04T07:03:41.839Z,22.97
2023-02-04T07:06:08.528Z,17.40
2023-02-04T07:08:35.211Z,17.43
2023-02-04T07:11:01.932Z,18.27
2023-02-04T07:13:28.659Z,25.40
2023-02-04T07:15:55.454Z,21.07
2023-02-04T07:18:22.285Z,26.40
2023-02-04T07:20:48.907Z,18.30
2023-02-04T07:23:15.696Z,20.90
2023-02-04T07:25:44.096Z,18.00
2023-02-04T07:28:10.778Z,18.60
2023-02-04T07:30:37.446Z,10.57
2023-02-04T07:33:05.432Z,18.20
2023-02-04T07:35:32.130Z,23.17
2023-02-04T07:37:58.876Z,11.03
2023-02-04T07:40:25.539Z,15.53
2023-02-04T07:42:52.171Z,27.30
2023-02-04T07:45:18.844Z,16.93
2023-02-04T07:47:45.497Z,17.80
2023-02-04T07:50:12.616Z,25.03
2023-02-04T07:52:39.323Z,21.93
2023-02-04T07:55:07.050Z,17.33
2023-02-04T07:57:34.070Z,24.10
2023-02-04T08:00:00.822Z,17.03
2023-02-04T08:02:27.760Z,16.93
2023-02-04T08:04:54.397Z,19.53
2023-02-04T08:07:21.042Z,16.77
2023-02-04T08:09:47.749Z,21.17
2023-02-04T08:12:14.382Z,18.13
2023-02-04T08:14:41.162Z,18.27
2023-02-04T08:17:07.828Z,21.57
2023-02-04T08:19:34.496Z,21.10
2023-02-04T08:22:01.235Z,10.87
2023-02-04T08:24:27.864Z,13.83
2023-02-04T08:26:54.510Z,18.10
2023-02-04T08:29:21.282Z,25.10
2023-02-04T08:31:48.069Z,25.60
2023-02-04T08:34:14.745Z,24.20
2023-02-04T08:36:41.489Z,23.53
2023-02-04T08:39:08.257Z,21.60
2023-02-04T08:41:35.033Z,18.77
2023-02-04T08:44:01.714Z,18.97
2023-02-04T08:46:28.419Z,18.50
2023-02-04T08:48:55.193Z,17.53
2023-02-04T08:51:22.056Z,18.20
2023-02-04T08:53:48.810Z,16.83
2023-02-04T08:56:20.561Z,21.17
2023-02-04T08:58:48.172Z,34.90
2023-02-04T09:01:15.076Z,25.77
2023-02-04T09:03:41.967Z,35.23
2023-02-04T09:06:09.118Z,23.23
2023-02-04T09:08:35.846Z,18.13
2023-02-04T09:11:02.788Z,17.93
2023-02-04T09:13:29.476Z,10.00
2023-02-04T09:15:56.208Z,9.33
2023-02-04T09:18:24.995Z,12.90
2023-02-04T09:20:52.930Z,16.57
2023-02-04T09:23:20.277Z,8.43
2023-02-04T09:25:47.444Z,8.53
2023-02-04T09:28:14.735Z,6.73
2023-02-04T09:30:45.555Z,11.47
2023-02-04T09:33:13.880Z,8.53
2023-02-04T09:35:41.123Z,14.90
2023-02-04T09:38:08.885Z,10.13
2023-02-04T09:40:40.761Z,7.63
2023-02-04T09:43:07.647Z,11.53
2023-02-04T09:45:36.233Z,15.73
2023-02-04T09:48:05.323Z,9.53
2023-02-04T09:50:33.035Z,5.83
2023-02-04T09:53:05.555Z,7.80
2023-02-04T09:55:44.293Z,7.57
2023-02-04T09:58:17.259Z,6.50
2023-02-04T10:00:46.323Z,3.20
2023-02-04T10:03:18.303Z,2.20
2023-02-04T10:05:46.758Z,3.10
2023-02-04T10:08:23.958Z,1.00
2023-02-04T10:10:50.942Z,1.00
2023-02-04T10:13:20.968Z,0.90
2023-02-04T10:15:50.257Z,1.07
2023-02-04T10:18:26.441Z,1.10
2023-02-04T10:21:14.457Z,1.30
2023-02-04T10:23:43.297Z,1.90
2023-02-04T10:26:12.401Z,2.23
2023-02-04T10:28:40.249Z,1.10
2023-02-04T10:31:30.548Z,2.60
2023-02-04T10:34:04.842Z,4.17
2023-02-04T10:36:31.500Z,2.30
2023-02-04T10:39:14.947Z,1.70
2023-02-04T10:41:59.594Z,3.23
2023-02-04T10:44:35.869Z,6.07
2023-02-04T10:47:05.111Z,2.17
2023-02-04T10:49:33.103Z,3.50
2023-02-04T10:52:02.509Z,5.87
2023-02-04T10:54:39.031Z,1.30
2023-02-04T10:57:18.915Z,0.87
2023-02-04T10:59:47.995Z,3.03
2023-02-04T11:02:34.503Z,2.23
2023-02-04T11:05:02.159Z,10.40
2023-02-04T11:07:30.283Z,10.10
2023-02-04T11:09:57.479Z,1.47
2023-02-04T11:12:44.557Z,6.63
2023-02-04T11:15:36.493Z,8.77
2023-02-04T11:18:09.357Z,11.53
2023-02-04T11:20:39.833Z,4.17
2023-02-04T11:23:25.309Z,9.60
2023-02-04T11:26:19.155Z,4.63
2023-02-04T11:29:00.358Z,3.67
2023-02-04T11:31:27.196Z,4.00
2023-02-04T11:34:18.462Z,6.00
2023-02-04T11:37:13.281Z,1.70
2023-02-04T11:39:46.031Z,1.57
2023-02-04T11:42:44.320Z,1.20
2023-02-04T11:45:18.076Z,1.10
2023-02-04T11:47:45.405Z,2.23
2023-02-04T11:50:29.294Z,1.40
2023-02-04T11:52:56.772Z,1.30
2023-02-04T11:55:23.711Z,0.97
2023-02-04T11:57:56.016Z,0.80
2023-02-04T12:00:26.256Z,3.90
2023-02-04T12:02:57.413Z,0.90
2023-02-04T12:05:45.473Z,1.27
2023-02-04T12:08:25.793Z,1.47
2023-02-04T12:11:06.347Z,1.10
2023-02-04T12:13:34.167Z,1.73
2023-02-04T12:16:06.359Z,0.90
2023-02-04T12:18:34.981Z,1.57
2023-02-04T12:21:04.283Z,1.00
2023-02-04T12:23:31.090Z,1.10
2023-02-04T12:25:58.318Z,2.00
2023-02-04T12:28:25.521Z,1.23
2023-02-04T12:30:52.288Z,1.10
2023-02-04T12:33:19.127Z,1.50
2023-02-04T12:35:46.111Z,0.83
2023-02-04T12:38:12.827Z,3.83
2023-02-04T12:40:39.530Z,1.33
2023-02-04T12:43:06.440Z,1.07
2023-02-04T12:45:34.241Z,3.60
2023-02-04T12:48:01.217Z,5.10
2023-02-04T12:50:27.898Z,1.60
2023-02-04T12:52:56.466Z,1.30
2023-02-04T12:55:25.267Z,0.83
2023-02-04T12:57:52.616Z,1.50
2023-02-04T13:00:21.071Z,1.30
2023-02-04T13:02:48.513Z,1.27
2023-02-04T13:05:15.631Z,1.40
2023-02-04T13:07:42.641Z,2.27
2023-02-04T13:10:11.556Z,1.30
2023-02-04T13:12:38.279Z,4.40
2023-02-04T13:15:06.118Z,1.10
2023-02-04T13:17:32.809Z,0.90
2023-02-04T13:20:00.592Z,0.80
2023-02-04T13:22:27.612Z,0.97
2023-02-04T13:24:54.394Z,1.00
2023-02-04T13:27:21.152Z,2.90
2023-02-04T13:29:47.948Z,2.10
2023-02-04T13:32:14.646Z,3.17
2023-02-04T13:34:41.430Z,1.20
2023-02-04T13:37:08.377Z,1.20
2023-02-04T13:39:35.043Z,1.20
2023-02-04T13:42:04.167Z,0.97
2023-02-04T13:44:31.129Z,2.30
2023-02-04T13:46:57.877Z,0.87
2023-02-04T13:49:24.565Z,0.97
2023-02-04T13:51:51.229Z,1.63
2023-02-04T13:54:18.057Z,1.30
2023-02-04T13:56:44.866Z,1.10
2023-02-04T13:59:11.535Z,1.70
2023-02-04T14:01:39.341Z,1.17
2023-02-04T14:04:05.987Z,1.40
2023-02-04T14:06:38.233Z,1.83
2023-02-04T14:09:05.257Z,1.10
2023-02-04T14:11:31.921Z,2.43
2023-02-04T14:13:58.578Z,1.50
2023-02-04T14:16:25.538Z,2.10
2023-02-04T14:18:52.217Z,1.60
2023-02-04T14:21:18.952Z,1.47
2023-02-04T14:23:45.884Z,1.10
2023-02-04T14:26:12.710Z,1.57
2023-02-04T14:28:39.345Z,1.40
2023-02-04T14:31:06.422Z,1.10
2023-02-04T14:33:33.315Z,1.37
2023-02-04T14:36:00.588Z,2.03
2023-02-04T14:38:30.899Z,1.37
2023-02-04T14:40:58.711Z,1.63
2023-02-04T14:43:26.332Z,2.97
2023-02-04T14:45:53.457Z,3.17
2023-02-04T14:48:20.128Z,2.90
2023-02-04T14:50:46.919Z,2.83
2023-02-04T14:53:13.575Z,1.40
2023-02-04T14:55:40.248Z,3.13
2023-02-04T14:58:07.115Z,1.23
2023-02-04T15:00:34.239Z,1.10
2023-02-04T15:03:01.105Z,1.57
2023-02-04T15:05:27.758Z,2.33
2023-02-04T15:07:54.469Z,1.20
2023-02-04T15:10:22.698Z,1.93
2023-02-04T15:12:49.434Z,6.10
2023-02-04T15:15:16.107Z,1.60
2023-02-04T15:17:42.793Z,3.87
2023-02-04T15:20:11.229Z,1.50
2023-02-04T15:22:38.209Z,2.50
2023-02-04T15:25:05.864Z,3.67
2023-02-04T15:27:33.006Z,2.70
2023-02-04T15:29:59.747Z,3.93
2023-02-04T15:32:26.569Z,3.63
2023-02-04T15:34:53.222Z,3.20
2023-02-04T15:37:19.939Z,3.40
2023-02-04T15:39:46.672Z,2.70
2023-02-04T15:42:14.364Z,4.60
2023-02-04T15:44:40.996Z,4.87
2023-02-04T15:47:07.775Z,3.70
2023-02-04T15:49:35.101Z,2.33
2023-02-04T15:52:02.487Z,5.00
2023-02-04T15:54:29.424Z,3.47
2023-02-04T15:56:56.210Z,3.20
2023-02-04T15:59:23.075Z,2.00
2023-02-04T16:01:50.931Z,2.20
2023-02-04T16:04:19.773Z,3.33
2023-02-04T16:06:57.883Z,4.00
2023-02-04T16:09:25.644Z,4.60
2023-02-04T16:11:52.330Z,8.67
2023-02-04T16:14:18.985Z,10.13
2023-02-04T16:16:45.612Z,5.23
2023-02-04T16:19:12.316Z,2.90
2023-02-04T16:21:39.050Z,2.30
2023-02-04T16:24:06.193Z,9.40
2023-02-04T16:26:33.338Z,5.90
2023-02-04T16:29:00.112Z,4.97
2023-02-04T16:31:26.920Z,4.13
2023-02-04T16:33:53.664Z,1.73
2023-02-04T16:36:20.347Z,2.07
2023-02-04T16:38:47.013Z,3.97
2023-02-04T16:41:14.337Z,2.67
2023-02-04T16:43:41.229Z,1.60
2023-02-04T16:46:08.207Z,3.33
2023-02-04T16:48:36.422Z,2.43
2023-02-04T16:51:03.502Z,2.30
2023-02-04T16:53:30.183Z,1.50
2023-02-04T16:55:56.863Z,3.70
2023-02-04T16:58:23.813Z,2.47
2023-02-04T17:00:50.587Z,2.53
2023-02-04T17:03:17.332Z,2.80
2023-02-04T17:05:44.273Z,2.60
2023-02-04T17:08:13.463Z,1.57
2023-02-04T17:10:59.331Z,1.20
2023-02-04T17:13:26.075Z,2.50
2023-02-04T17:15:54.179Z,2.60
2023-02-04T17:18:21.266Z,3.77
2023-02-04T17:20:48.034Z,3.07
2023-02-04T17:23:14.796Z,2.43
2023-02-04T17:25:41.486Z,6.10
2023-02-04T17:28:08.334Z,1.70
2023-02-04T17:30:35.253Z,4.73
2023-02-04T17:33:01.995Z,4.77
2023-02-04T17:35:29.273Z,7.50
2023-02-04T17:37:56.032Z,3.90
2023-02-04T17:40:22.714Z,4.43
2023-02-04T17:42:49.361Z,7.80
2023-02-04T17:45:16.088Z,3.03
2023-02-04T17:47:42.786Z,2.80
2023-02-04T17:50:11.815Z,2.40
2023-02-04T17:52:39.173Z,3.97
2023-02-04T17:55:22.433Z,2.60
2023-02-04T17:57:50.244Z,4.23
2023-02-04T18:00:20.189Z,6.00
2023-02-04T18:02:48.807Z,3.07
2023-02-04T18:05:28.744Z,2.77
2023-02-04T18:08:27.062Z,2.23
2023-02-04T18:10:54.970Z,3.00
2023-02-04T18:13:29.384Z,2.30
2023-02-04T18:15:58.713Z,2.50
2023-02-04T18:18:35.825Z,8.03
2023-02-04T18:21:18.026Z,2.63
2023-02-04T18:23:45.971Z,2.43
2023-02-04T18:26:23.290Z,9.10
2023-02-04T18:28:51.329Z,2.13
2023-02-04T18:31:44.416Z,2.07
2023-02-04T18:34:20.398Z,2.83
2023-02-04T18:36:56.129Z,1.90
2023-02-04T18:39:28.972Z,2.03
2023-02-04T18:41:55.988Z,2.23
2023-02-04T18:44:25.474Z,1.60
2023-02-04T18:46:52.560Z,1.70
2023-02-04T18:49:36.917Z,1.50
2023-02-04T18:52:20.589Z,1.30
2023-02-04T18:54:51.982Z,1.77
2023-02-04T18:57:29.012Z,6.63
2023-02-04T19:00:09.349Z,1.63
2023-02-04T19:02:52.269Z,1.93
2023-02-04T19:05:41.176Z,2.07
2023-02-04T19:08:16.852Z,2.30
2023-02-04T19:10:43.649Z,2.00
2023-02-04T19:13:29.103Z,3.73
2023-02-04T19:16:03.579Z,3.10
2023-02-04T19:18:38.029Z,3.60
2023-02-04T19:21:28.818Z,3.33
2023-02-04T19:24:18.518Z,5.50
2023-02-04T19:26:59.835Z,2.10
2023-02-04T19:29:33.041Z,2.33
2023-02-04T19:32:21.567Z,3.90
2023-02-04T19:34:48.412Z,4.40
2023-02-04T19:37:22.545Z,3.30
2023-02-04T19:39:51.109Z,3.17
2023-02-04T19:42:44.285Z,37.20
2023-02-04T19:45:18.924Z,18.13
2023-02-04T19:47:45.717Z,15.97
2023-02-04T19:50:23.290Z,15.07
2023-02-04T19:52:52.370Z,14.07
2023-02-04T19:55:21.907Z,14.20
2023-02-04T19:57:54.934Z,6.30
2023-02-04T20:00:34.703Z,8.37
2023-02-04T20:03:02.634Z,13.63
2023-02-04T20:05:33.055Z,12.37
2023-02-04T20:08:32.105Z,12.13
2023-02-04T20:10:58.883Z,7.23
2023-02-04T20:13:26.809Z,7.60
2023-02-04T20:15:58.026Z,10.63
2023-02-04T20:18:26.408Z,8.80
2023-02-04T20:20:54.811Z,12.30
2023-02-04T20:23:27.355Z,5.90
2023-02-04T20:25:54.777Z,5.87
2023-02-04T20:28:40.590Z,7.27
2023-02-04T20:31:21.046Z,6.90
2023-02-04T20:33:50.572Z,6.00
2023-02-04T20:36:29.695Z,3.60
2023-02-04T20:38:59.163Z,6.30
2023-02-04T20:41:25.831Z,6.40
2023-02-04T20:43:52.523Z,6.03
2023-02-04T20:46:24.303Z,4.73
2023-02-04T20:48:52.735Z,4.83
2023-02-04T20:51:23.431Z,5.40
2023-02-04T20:53:52.372Z,6.20
2023-02-04T20:56:26.712Z,5.77
2023-02-04T20:59:12.126Z,5.27
2023-02-04T21:01:48.532Z,5.10
2023-02-04T21:04:47.020Z,3.20
2023-02-04T21:07:17.452Z,4.70
2023-02-04T21:09:44.415Z,3.70
2023-02-04T21:12:11.511Z,3.40
2023-02-04T21:14:38.279Z,4.47
2023-02-04T21:17:05.015Z,5.80
2023-02-04T21:19:33.787Z,3.60
2023-02-04T21:22:00.983Z,7.63
2023-02-04T21:24:31.487Z,4.50
2023-02-04T21:26:58.138Z,6.30
2023-02-04T21:29:26.029Z,7.83
2023-02-04T21:31:54.734Z,12.10
2023-02-04T21:34:21.621Z,14.87
2023-02-04T21:36:48.254Z,10.70
2023-02-04T21:39:14.965Z,9.00
2023-02-04T21:41:41.625Z,5.60
2023-02-04T21:44:08.316Z,6.27
2023-02-04T21:46:35.056Z,9.13
2023-02-04T21:49:02.460Z,7.67
2023-02-04T21:51:29.197Z,9.13
2023-02-04T21:53:55.915Z,9.23
2023-02-04T21:56:22.563Z,12.07
2023-02-04T21:58:49.223Z,7.43
2023-02-04T22:01:15.900Z,7.40
2023-02-04T22:03:42.559Z,8.80
2023-02-04T22:06:09.373Z,6.40
2023-02-04T22:08:36.056Z,8.83
2023-02-04T22:11:02.957Z,5.97
2023-02-04T22:13:48.542Z,3.77
2023-02-04T22:16:15.255Z,4.10
2023-02-04T22:18:42.105Z,3.57
2023-02-04T22:21:08.816Z,5.33
2023-02-04T22:23:35.466Z,6.90
2023-02-04T22:26:02.105Z,11.60
2023-02-04T22:28:28.797Z,5.53
2023-02-04T22:30:55.502Z,5.73
2023-02-04T22:33:22.137Z,6.53
2023-02-04T22:35:48.941Z,5.50
2023-02-04T22:38:15.664Z,8.30
2023-02-04T22:40:42.370Z,4.87
2023-02-04T22:43:09.017Z,12.13
2023-02-04T22:45:35.942Z,9.67
2023-02-04T22:48:03.008Z,9.10
2023-02-04T22:50:29.640Z,9.47
2023-02-04T22:52:56.371Z,9.13
2023-02-04T22:55:23.171Z,9.63
2023-02-04T22:57:49.871Z,8.10
2023-02-04T23:00:16.961Z,5.30
2023-02-04T23:02:43.612Z,7.33
2023-02-04T23:05:10.267Z,4.90
2023-02-04T23:07:37.315Z,7.80
2023-02-04T23:10:04.742Z,10.30
2023-02-04T23:12:31.408Z,7.30
2023-02-04T23:14:58.136Z,6.40
2023-02-04T23:17:24.809Z,6.70
2023-02-04T23:19:51.460Z,7.20
2023-02-04T23:22:18.127Z,8.77
2023-02-04T23:24:45.014Z,7.17
2023-02-04T23:27:12.694Z,8.17
2023-02-04T23:29:40.075Z,6.47
2023-02-04T23:32:07.352Z,7.07
2023-02-04T23:34:34.384Z,9.97
2023-02-04T23:37:01.203Z,8.00
2023-02-04T23:39:27.912Z,8.57
2023-02-04T23:41:54.677Z,9.10
2023-02-04T23:44:21.435Z,17.33
2023-02-04T23:46:48.180Z,6.10
2023-02-04T23:49:15.671Z,9.20
2023-02-04T23:51:42.658Z,10.37
2023-02-04T23:54:09.676Z,8.50
2023-02-04T23:56:36.345Z,7.17
2023-02-04T23:59:03.170Z,9.03
